sensor_id;sensor_type;location;lat;lon;timestamp;pressure;altitude;pressure_sealevel;temperature;humidity
50867;BME280;36839;51.946;21.002;2023-03-14T00:01:17;98596.45;;;5.94;100.00
50867;BME280;36839;51.946;21.002;2023-03-14T00:03:46;98595.92;;;5.91;100.00
50867;BME280;36839;51.946;21.002;2023-03-14T00:06:17;98591.73;;;5.87;100.00
50867;BME280;36839;51.946;21.002;2023-03-14T00:08:46;98586.55;;;5.83;100.00
50867;BME280;36839;51.946;21.002;2023-03-14T00:11:22;98581.14;;;5.79;100.00
50867;BME280;36839;51.946;21.002;2023-03-14T00:13:51;98572.21;;;5.76;100.00
50867;BME280;36839;51.946;21.002;2023-03-14T00:16:18;98576.21;;;5.76;100.00
50867;BME280;36839;51.946;21.002;2023-03-14T00:19:05;98568.88;;;5.73;100.00
50867;BME280;36839;51.946;21.002;2023-03-14T00:21:34;98565.33;;;5.73;100.00
50867;BME280;36839;51.946;21.002;2023-03-14T00:24:05;98563.64;;;5.71;100.00
50867;BME280;36839;51.946;21.002;2023-03-14T00:26:32;98568.41;;;5.69;100.00
50867;BME280;36839;51.946;21.002;2023-03-14T00:29:03;98555.96;;;5.68;100.00
50867;BME280;36839;51.946;21.002;2023-03-14T00:31:29;98548.68;;;5.68;100.00
50867;BME280;36839;51.946;21.002;2023-03-14T00:33:57;98543.59;;;5.66;100.00
50867;BME280;36839;51.946;21.002;2023-03-14T00:36:26;98542.99;;;5.66;100.00
50867;BME280;36839;51.946;21.002;2023-03-14T00:38:55;98537.13;;;5.66;100.00
50867;BME280;36839;51.946;21.002;2023-03-14T00:41:23;98532.88;;;5.63;100.00
50867;BME280;36839;51.946;21.002;2023-03-14T00:43:50;98531.30;;;5.60;100.00
50867;BME280;36839;51.946;21.002;2023-03-14T00:46:18;98524.52;;;5.56;100.00
50867;BME280;36839;51.946;21.002;2023-03-14T00:48:47;98519.20;;;5.56;100.00
50867;BME280;36839;51.946;21.002;2023-03-14T00:51:15;98516.36;;;5.55;100.00
50867;BME280;36839;51.946;21.002;2023-03-14T00:53:45;98509.20;;;5.53;100.00
50867;BME280;36839;51.946;21.002;2023-03-14T00:56:14;98504.00;;;5.51;100.00
50867;BME280;36839;51.946;21.002;2023-03-14T00:58:44;98498.80;;;5.47;100.00
50867;BME280;36839;51.946;21.002;2023-03-14T01:01:18;98503.09;;;5.45;100.00
50867;BME280;36839;51.946;21.002;2023-03-14T01:03:46;98500.61;;;5.45;100.00
50867;BME280;36839;51.946;21.002;2023-03-14T01:06:20;98487.93;;;5.43;100.00
50867;BME280;36839;51.946;21.002;2023-03-14T01:08:50;98482.55;;;5.45;100.00
50867;BME280;36839;51.946;21.002;2023-03-14T01:11:26;98480.30;;;5.46;100.00
50867;BME280;36839;51.946;21.002;2023-03-14T01:13:55;98473.05;;;5.48;100.00
50867;BME280;36839;51.946;21.002;2023-03-14T01:16:34;98468.02;;;5.46;100.00
50867;BME280;36839;51.946;21.002;2023-03-14T01:19:04;98468.65;;;5.44;100.00
50867;BME280;36839;51.946;21.002;2023-03-14T01:21:45;98465.59;;;5.42;100.00
50867;BME280;36839;51.946;21.002;2023-03-14T01:24:13;98461.16;;;5.42;100.00
50867;BME280;36839;51.946;21.002;2023-03-14T01:26:44;98463.34;;;5.39;100.00
50867;BME280;36839;51.946;21.002;2023-03-14T01:29:11;98454.10;;;5.37;100.00
50867;BME280;36839;51.946;21.002;2023-03-14T01:31:38;98453.13;;;5.36;100.00
50867;BME280;36839;51.946;21.002;2023-03-14T01:34:05;98451.27;;;5.34;100.00
50867;BME280;36839;51.946;21.002;2023-03-14T01:36:31;98449.05;;;5.30;100.00
50867;BME280;36839;51.946;21.002;2023-03-14T01:38:57;98444.83;;;5.27;100.00
50867;BME280;36839;51.946;21.002;2023-03-14T01:41:25;98448.91;;;5.23;100.00
50867;BME280;36839;51.946;21.002;2023-03-14T01:44:03;98457.40;;;5.20;100.00
50867;BME280;36839;51.946;21.002;2023-03-14T01:46:37;98459.26;;;5.20;100.00
50867;BME280;36839;51.946;21.002;2023-03-14T01:49:29;98461.45;;;5.22;100.00
50867;BME280;36839;51.946;21.002;2023-03-14T01:54:36;98452.31;;;5.21;100.00
50867;BME280;36839;51.946;21.002;2023-03-14T01:57:20;98442.58;;;5.15;100.00
50867;BME280;36839;51.946;21.002;2023-03-14T01:59:58;98428.19;;;5.10;100.00
50867;BME280;36839;51.946;21.002;2023-03-14T02:02:41;98428.31;;;5.09;100.00
50867;BME280;36839;51.946;21.002;2023-03-14T02:05:10;98431.41;;;5.10;100.00
50867;BME280;36839;51.946;21.002;2023-03-14T02:07:48;98433.83;;;5.11;100.00
50867;BME280;36839;51.946;21.002;2023-03-14T02:10:22;98431.75;;;5.13;100.00
50867;BME280;36839;51.946;21.002;2023-03-14T02:12:51;98431.38;;;5.12;100.00
50867;BME280;36839;51.946;21.002;2023-03-14T02:15:18;98434.61;;;5.08;100.00
50867;BME280;36839;51.946;21.002;2023-03-14T02:17:48;98428.77;;;5.03;100.00
50867;BME280;36839;51.946;21.002;2023-03-14T02:22:52;98428.42;;;4.93;100.00
50867;BME280;36839;51.946;21.002;2023-03-14T02:25:31;98430.50;;;4.88;100.00
50867;BME280;36839;51.946;21.002;2023-03-14T02:28:00;98424.77;;;4.82;100.00
50867;BME280;36839;51.946;21.002;2023-03-14T02:30:30;98416.04;;;4.77;100.00
50867;BME280;36839;51.946;21.002;2023-03-14T02:33:07;98408.20;;;4.73;100.00
50867;BME280;36839;51.946;21.002;2023-03-14T02:35:43;98396.73;;;4.71;100.00
50867;BME280;36839;51.946;21.002;2023-03-14T02:38:41;98386.84;;;4.69;100.00
50867;BME280;36839;51.946;21.002;2023-03-14T02:41:12;98390.55;;;4.71;100.00
50867;BME280;36839;51.946;21.002;2023-03-14T02:43:39;98385.79;;;4.71;100.00
50867;BME280;36839;51.946;21.002;2023-03-14T02:46:09;98382.88;;;4.72;100.00
50867;BME280;36839;51.946;21.002;2023-03-14T02:48:41;98378.17;;;4.73;100.00
50867;BME280;36839;51.946;21.002;2023-03-14T02:51:11;98372.83;;;4.71;100.00
50867;BME280;36839;51.946;21.002;2023-03-14T02:53:39;98371.03;;;4.69;100.00
50867;BME280;36839;51.946;21.002;2023-03-14T02:56:08;98368.41;;;4.68;100.00
50867;BME280;36839;51.946;21.002;2023-03-14T02:58:39;98367.54;;;4.67;100.00
50867;BME280;36839;51.946;21.002;2023-03-14T03:01:08;98380.40;;;4.66;100.00
50867;BME280;36839;51.946;21.002;2023-03-14T03:03:35;98384.93;;;4.64;100.00
50867;BME280;36839;51.946;21.002;2023-03-14T03:06:04;98388.28;;;4.60;100.00
50867;BME280;36839;51.946;21.002;2023-03-14T03:08:40;98383.27;;;4.55;100.00
50867;BME280;36839;51.946;21.002;2023-03-14T03:11:12;98382.44;;;4.50;100.00
50867;BME280;36839;51.946;21.002;2023-03-14T03:13:39;98380.54;;;4.46;100.00
50867;BME280;36839;51.946;21.002;2023-03-14T03:16:05;98378.23;;;4.43;100.00
50867;BME280;36839;51.946;21.002;2023-03-14T03:18:32;98376.27;;;4.43;100.00
50867;BME280;36839;51.946;21.002;2023-03-14T03:21:03;98377.80;;;4.46;100.00
50867;BME280;36839;51.946;21.002;2023-03-14T03:23:36;98373.37;;;4.51;100.00
50867;BME280;36839;51.946;21.002;2023-03-14T03:26:04;98375.05;;;4.56;100.00
50867;BME280;36839;51.946;21.002;2023-03-14T03:28:30;98373.30;;;4.59;100.00
50867;BME280;36839;51.946;21.002;2023-03-14T03:30:57;98366.39;;;4.63;100.00
50867;BME280;36839;51.946;21.002;2023-03-14T03:33:23;98363.73;;;4.65;100.00
50867;BME280;36839;51.946;21.002;2023-03-14T03:35:52;98360.59;;;4.69;100.00
50867;BME280;36839;51.946;21.002;2023-03-14T03:38:19;98364.63;;;4.71;100.00
50867;BME280;36839;51.946;21.002;2023-03-14T03:40:46;98367.36;;;4.75;100.00
50867;BME280;36839;51.946;21.002;2023-03-14T03:43:13;98360.16;;;4.80;100.00
50867;BME280;36839;51.946;21.002;2023-03-14T03:45:44;98357.48;;;4.81;100.00
50867;BME280;36839;51.946;21.002;2023-03-14T03:48:11;98353.16;;;4.82;100.00
50867;BME280;36839;51.946;21.002;2023-03-14T03:50:46;98351.20;;;4.85;100.00
50867;BME280;36839;51.946;21.002;2023-03-14T03:53:23;98356.10;;;4.87;100.00
50867;BME280;36839;51.946;21.002;2023-03-14T03:55:57;98350.04;;;4.82;100.00
50867;BME280;36839;51.946;21.002;2023-03-14T03:58:25;98341.42;;;4.75;100.00
50867;BME280;36839;51.946;21.002;2023-03-14T04:00:53;98331.76;;;4.70;100.00
50867;BME280;36839;51.946;21.002;2023-03-14T04:03:20;98332.48;;;4.66;100.00
50867;BME280;36839;51.946;21.002;2023-03-14T04:06:11;98332.44;;;4.62;100.00
50867;BME280;36839;51.946;21.002;2023-03-14T04:08:40;98346.02;;;4.58;100.00
50867;BME280;36839;51.946;21.002;2023-03-14T04:11:08;98337.71;;;4.55;100.00
50867;BME280;36839;51.946;21.002;2023-03-14T04:13:40;98331.33;;;4.51;100.00
50867;BME280;36839;51.946;21.002;2023-03-14T04:16:22;98334.72;;;4.45;100.00
50867;BME280;36839;51.946;21.002;2023-03-14T04:18:52;98329.38;;;4.39;100.00
50867;BME280;36839;51.946;21.002;2023-03-14T04:21:21;98334.64;;;4.37;100.00
50867;BME280;36839;51.946;21.002;2023-03-14T04:23:51;98341.52;;;4.32;100.00
50867;BME280;36839;51.946;21.002;2023-03-14T04:26:21;98339.18;;;4.25;100.00
50867;BME280;36839;51.946;21.002;2023-03-14T04:28:47;98333.56;;;4.19;100.00
50867;BME280;36839;51.946;21.002;2023-03-14T04:31:19;98338.21;;;4.15;100.00
50867;BME280;36839;51.946;21.002;2023-03-14T04:33:50;98347.07;;;4.13;100.00
50867;BME280;36839;51.946;21.002;2023-03-14T04:36:17;98355.75;;;4.13;100.00
50867;BME280;36839;51.946;21.002;2023-03-14T04:38:45;98355.48;;;4.14;100.00
50867;BME280;36839;51.946;21.002;2023-03-14T04:41:12;98350.16;;;4.15;100.00
50867;BME280;36839;51.946;21.002;2023-03-14T04:43:43;98343.51;;;4.17;100.00
50867;BME280;36839;51.946;21.002;2023-03-14T04:46:09;98330.95;;;4.18;100.00
50867;BME280;36839;51.946;21.002;2023-03-14T04:48:39;98323.26;;;4.18;100.00
50867;BME280;36839;51.946;21.002;2023-03-14T04:51:08;98321.11;;;4.19;100.00
50867;BME280;36839;51.946;21.002;2023-03-14T04:53:35;98317.83;;;4.19;100.00
50867;BME280;36839;51.946;21.002;2023-03-14T04:56:04;98310.02;;;4.21;100.00
50867;BME280;36839;51.946;21.002;2023-03-14T04:58:32;98300.23;;;4.21;100.00
50867;BME280;36839;51.946;21.002;2023-03-14T05:01:04;98295.13;;;4.25;100.00
50867;BME280;36839;51.946;21.002;2023-03-14T05:03:38;98302.52;;;4.30;100.00
50867;BME280;36839;51.946;21.002;2023-03-14T05:06:05;98300.36;;;4.33;100.00
50867;BME280;36839;51.946;21.002;2023-03-14T05:08:32;98288.02;;;4.32;100.00
50867;BME280;36839;51.946;21.002;2023-03-14T05:10:59;98275.66;;;4.33;100.00
50867;BME280;36839;51.946;21.002;2023-03-14T05:13:26;98258.71;;;4.35;100.00
50867;BME280;36839;51.946;21.002;2023-03-14T05:15:52;98260.78;;;4.39;100.00
50867;BME280;36839;51.946;21.002;2023-03-14T05:18:20;98265.89;;;4.45;100.00
50867;BME280;36839;51.946;21.002;2023-03-14T05:20:46;98269.70;;;4.51;100.00
50867;BME280;36839;51.946;21.002;2023-03-14T05:23:18;98267.67;;;4.56;100.00
50867;BME280;36839;51.946;21.002;2023-03-14T05:25:48;98268.48;;;4.61;100.00
50867;BME280;36839;51.946;21.002;2023-03-14T05:28:17;98274.42;;;4.64;100.00
50867;BME280;36839;51.946;21.002;2023-03-14T05:30:44;98275.98;;;4.68;100.00
50867;BME280;36839;51.946;21.002;2023-03-14T05:33:11;98275.08;;;4.74;100.00
50867;BME280;36839;51.946;21.002;2023-03-14T05:35:39;98267.29;;;4.80;100.00
50867;BME280;36839;51.946;21.002;2023-03-14T05:38:05;98266.95;;;4.82;100.00
50867;BME280;36839;51.946;21.002;2023-03-14T05:40:34;98262.57;;;4.82;100.00
50867;BME280;36839;51.946;21.002;2023-03-14T05:43:03;98263.18;;;4.81;100.00
50867;BME280;36839;51.946;21.002;2023-03-14T05:45:31;98262.69;;;4.81;100.00
50867;BME280;36839;51.946;21.002;2023-03-14T05:47:59;98255.69;;;4.81;100.00
50867;BME280;36839;51.946;21.002;2023-03-14T05:50:28;98259.30;;;4.81;100.00
50867;BME280;36839;51.946;21.002;2023-03-14T05:52:57;98247.93;;;4.79;100.00
50867;BME280;36839;51.946;21.002;2023-03-14T05:55:24;98240.00;;;4.80;100.00
50867;BME280;36839;51.946;21.002;2023-03-14T05:57:54;98229.36;;;4.85;100.00
50867;BME280;36839;51.946;21.002;2023-03-14T06:00:21;98225.27;;;4.90;100.00
50867;BME280;36839;51.946;21.002;2023-03-14T06:02:48;98225.89;;;4.99;100.00
50867;BME280;36839;51.946;21.002;2023-03-14T06:05:15;98223.74;;;5.10;100.00
50867;BME280;36839;51.946;21.002;2023-03-14T06:07:42;98225.19;;;5.23;100.00
50867;BME280;36839;51.946;21.002;2023-03-14T06:10:13;98225.61;;;5.33;100.00
50867;BME280;36839;51.946;21.002;2023-03-14T06:12:41;98225.92;;;5.42;100.00
50867;BME280;36839;51.946;21.002;2023-03-14T06:15:08;98223.14;;;5.49;100.00
50867;BME280;36839;51.946;21.002;2023-03-14T06:17:38;98209.11;;;5.56;100.00
50867;BME280;36839;51.946;21.002;2023-03-14T06:20:07;98207.52;;;5.63;100.00
50867;BME280;36839;51.946;21.002;2023-03-14T06:22:41;98205.79;;;5.72;100.00
50867;BME280;36839;51.946;21.002;2023-03-14T06:25:16;98209.79;;;5.86;100.00
50867;BME280;36839;51.946;21.002;2023-03-14T06:27:46;98208.16;;;6.01;100.00
50867;BME280;36839;51.946;21.002;2023-03-14T06:30:18;98201.80;;;6.23;100.00
50867;BME280;36839;51.946;21.002;2023-03-14T06:32:47;98191.31;;;6.43;100.00
50867;BME280;36839;51.946;21.002;2023-03-14T06:35:14;98190.45;;;6.63;100.00
50867;BME280;36839;51.946;21.002;2023-03-14T06:37:42;98186.13;;;6.83;100.00
50867;BME280;36839;51.946;21.002;2023-03-14T06:40:12;98178.70;;;6.99;100.00
50867;BME280;36839;51.946;21.002;2023-03-14T06:42:44;98182.30;;;7.16;100.00
50867;BME280;36839;51.946;21.002;2023-03-14T06:45:14;98174.22;;;7.27;100.00
50867;BME280;36839;51.946;21.002;2023-03-14T06:47:45;98181.50;;;7.39;100.00
50867;BME280;36839;51.946;21.002;2023-03-14T06:50:16;98181.45;;;7.49;100.00
50867;BME280;36839;51.946;21.002;2023-03-14T06:52:47;98174.02;;;7.59;100.00
50867;BME280;36839;51.946;21.002;2023-03-14T06:55:15;98177.44;;;7.71;100.00
50867;BME280;36839;51.946;21.002;2023-03-14T06:57:43;98173.56;;;7.86;100.00
50867;BME280;36839;51.946;21.002;2023-03-14T07:00:14;98172.81;;;8.02;100.00
50867;BME280;36839;51.946;21.002;2023-03-14T07:02:42;98168.34;;;8.21;100.00
50867;BME280;36839;51.946;21.002;2023-03-14T07:05:12;98167.45;;;8.38;100.00
50867;BME280;36839;51.946;21.002;2023-03-14T07:07:40;98169.20;;;8.55;100.00
50867;BME280;36839;51.946;21.002;2023-03-14T07:10:07;98171.91;;;8.73;100.00
50867;BME280;36839;51.946;21.002;2023-03-14T07:12:35;98178.42;;;8.92;100.00
50867;BME280;36839;51.946;21.002;2023-03-14T07:15:03;98176.78;;;9.07;100.00
50867;BME280;36839;51.946;21.002;2023-03-14T07:17:29;98175.80;;;9.18;100.00
50867;BME280;36839;51.946;21.002;2023-03-14T07:19:56;98172.85;;;9.29;100.00
50867;BME280;36839;51.946;21.002;2023-03-14T07:22:23;98178.71;;;9.41;100.00
50867;BME280;36839;51.946;21.002;2023-03-14T07:24:51;98177.40;;;9.52;100.00
50867;BME280;36839;51.946;21.002;2023-03-14T07:27:22;98173.23;;;9.64;100.00
50867;BME280;36839;51.946;21.002;2023-03-14T07:29:50;98165.20;;;9.77;100.00
50867;BME280;36839;51.946;21.002;2023-03-14T07:32:18;98173.77;;;9.88;100.00
50867;BME280;36839;51.946;21.002;2023-03-14T07:34:46;98178.67;;;10.01;99.66
50867;BME280;36839;51.946;21.002;2023-03-14T07:37:17;98182.42;;;10.08;98.97
50867;BME280;36839;51.946;21.002;2023-03-14T07:39:47;98196.70;;;10.09;97.28
50867;BME280;36839;51.946;21.002;2023-03-14T07:42:16;98189.09;;;10.12;96.02
50867;BME280;36839;51.946;21.002;2023-03-14T07:44:45;98185.63;;;10.23;95.33
50867;BME280;36839;51.946;21.002;2023-03-14T07:47:15;98197.53;;;10.35;94.13
50867;BME280;36839;51.946;21.002;2023-03-14T07:49:48;98192.83;;;10.52;97.06
50867;BME280;36839;51.946;21.002;2023-03-14T07:52:16;98189.01;;;10.66;95.96
50867;BME280;36839;51.946;21.002;2023-03-14T07:54:43;98191.66;;;10.76;95.92
50867;BME280;36839;51.946;21.002;2023-03-14T07:57:14;98196.42;;;10.87;96.12
50867;BME280;36839;51.946;21.002;2023-03-14T07:59:45;98191.58;;;10.93;93.95
50867;BME280;36839;51.946;21.002;2023-03-14T08:02:13;98192.75;;;10.98;94.78
50867;BME280;36839;51.946;21.002;2023-03-14T08:04:42;98191.02;;;11.02;92.82
50867;BME280;36839;51.946;21.002;2023-03-14T08:07:10;98194.98;;;11.11;93.36
50867;BME280;36839;51.946;21.002;2023-03-14T08:09:37;98191.84;;;11.20;92.92
50867;BME280;36839;51.946;21.002;2023-03-14T08:12:04;98187.39;;;11.21;89.77
50867;BME280;36839;51.946;21.002;2023-03-14T08:14:33;98193.17;;;11.25;90.87
50867;BME280;36839;51.946;21.002;2023-03-14T08:17:00;98189.86;;;11.34;91.98
50867;BME280;36839;51.946;21.002;2023-03-14T08:19:26;98187.81;;;11.37;89.13
50867;BME280;36839;51.946;21.002;2023-03-14T08:21:53;98191.74;;;11.44;92.48
50867;BME280;36839;51.946;21.002;2023-03-14T08:24:21;98188.40;;;11.49;91.33
50867;BME280;36839;51.946;21.002;2023-03-14T08:26:47;98188.42;;;11.53;89.56
50867;BME280;36839;51.946;21.002;2023-03-14T08:29:14;98198.24;;;11.58;88.19
50867;BME280;36839;51.946;21.002;2023-03-14T08:31:40;98203.77;;;11.67;88.76
50867;BME280;36839;51.946;21.002;2023-03-14T08:34:08;98199.67;;;11.81;89.35
50867;BME280;36839;51.946;21.002;2023-03-14T08:36:34;98192.44;;;11.94;88.16
50867;BME280;36839;51.946;21.002;2023-03-14T08:39:02;98184.48;;;12.12;90.47
50867;BME280;36839;51.946;21.002;2023-03-14T08:41:35;98188.02;;;12.21;86.55
50867;BME280;36839;51.946;21.002;2023-03-14T08:44:07;98189.17;;;12.23;84.71
50867;BME280;36839;51.946;21.002;2023-03-14T08:46:37;98187.15;;;12.22;83.37
50867;BME280;36839;51.946;21.002;2023-03-14T08:49:05;98185.95;;;12.31;85.05
50867;BME280;36839;51.946;21.002;2023-03-14T08:51:32;98186.49;;;12.41;84.91
50867;BME280;36839;51.946;21.002;2023-03-14T08:53:58;98190.85;;;12.44;82.94
50867;BME280;36839;51.946;21.002;2023-03-14T08:56:31;98184.64;;;12.43;81.68
50867;BME280;36839;51.946;21.002;2023-03-14T08:58:58;98185.34;;;12.55;86.95
50867;BME280;36839;51.946;21.002;2023-03-14T09:01:27;98180.58;;;12.74;85.32
50867;BME280;36839;51.946;21.002;2023-03-14T09:03:55;98179.92;;;12.85;85.36
50867;BME280;36839;51.946;21.002;2023-03-14T09:06:26;98176.34;;;12.95;82.13
50867;BME280;36839;51.946;21.002;2023-03-14T09:08:56;98180.14;;;13.02;80.73
50867;BME280;36839;51.946;21.002;2023-03-14T09:11:24;98174.89;;;13.06;74.73
50867;BME280;36839;51.946;21.002;2023-03-14T09:13:53;98165.25;;;13.15;75.88
50867;BME280;36839;51.946;21.002;2023-03-14T09:16:19;98163.94;;;13.25;75.80
50867;BME280;36839;51.946;21.002;2023-03-14T09:18:50;98155.67;;;13.29;71.32
50867;BME280;36839;51.946;21.002;2023-03-14T09:21:24;98155.06;;;13.40;73.01
50867;BME280;36839;51.946;21.002;2023-03-14T09:23:53;98155.39;;;13.49;72.98
50867;BME280;36839;51.946;21.002;2023-03-14T09:26:20;98148.66;;;13.55;71.93
50867;BME280;36839;51.946;21.002;2023-03-14T09:28:53;98141.81;;;13.63;71.51
50867;BME280;36839;51.946;21.002;2023-03-14T09:31:28;98138.70;;;13.74;72.51
50867;BME280;36839;51.946;21.002;2023-03-14T09:33:56;98137.40;;;13.77;68.99
50867;BME280;36839;51.946;21.002;2023-03-14T09:36:27;98133.75;;;13.82;69.70
50867;BME280;36839;51.946;21.002;2023-03-14T09:38:54;98131.15;;;13.95;73.48
50867;BME280;36839;51.946;21.002;2023-03-14T09:41:36;98131.37;;;14.09;72.55
50867;BME280;36839;51.946;21.002;2023-03-14T09:44:20;98120.73;;;14.15;69.29
50867;BME280;36839;51.946;21.002;2023-03-14T09:46:52;98115.23;;;14.22;67.83
50867;BME280;36839;51.946;21.002;2023-03-14T09:49:25;98115.98;;;14.33;68.74
50867;BME280;36839;51.946;21.002;2023-03-14T09:51:58;98108.70;;;14.43;68.62
50867;BME280;36839;51.946;21.002;2023-03-14T09:54:59;98108.10;;;14.50;70.40
50867;BME280;36839;51.946;21.002;2023-03-14T09:57:32;98104.27;;;14.59;65.48
50867;BME280;36839;51.946;21.002;2023-03-14T10:00:14;98111.00;;;14.69;65.20
50867;BME280;36839;51.946;21.002;2023-03-14T10:02:45;98116.23;;;14.79;68.37
50867;BME280;36839;51.946;21.002;2023-03-14T10:05:17;98114.08;;;14.81;68.98
50867;BME280;36839;51.946;21.002;2023-03-14T10:07:48;98118.66;;;14.80;68.00
50867;BME280;36839;51.946;21.002;2023-03-14T10:10:23;98128.88;;;14.79;63.52
50867;BME280;36839;51.946;21.002;2023-03-14T10:12:59;98124.96;;;14.78;61.59
50867;BME280;36839;51.946;21.002;2023-03-14T10:15:36;98120.68;;;14.89;62.57
50867;BME280;36839;51.946;21.002;2023-03-14T10:18:11;98113.54;;;14.97;62.17
50867;BME280;36839;51.946;21.002;2023-03-14T10:20:43;98104.73;;;14.93;60.23
50867;BME280;36839;51.946;21.002;2023-03-14T10:23:21;98096.98;;;14.96;61.86
50867;BME280;36839;51.946;21.002;2023-03-14T10:26:24;98098.66;;;14.99;61.11
50867;BME280;36839;51.946;21.002;2023-03-14T10:29:03;98101.54;;;15.02;58.96
50867;BME280;36839;51.946;21.002;2023-03-14T10:31:54;98100.98;;;14.97;58.65
50867;BME280;36839;51.946;21.002;2023-03-14T10:34:36;98096.39;;;14.93;58.32
50867;BME280;36839;51.946;21.002;2023-03-14T10:37:18;98096.09;;;15.06;58.60
50867;BME280;36839;51.946;21.002;2023-03-14T10:39:54;98093.16;;;15.28;59.51
50867;BME280;36839;51.946;21.002;2023-03-14T10:42:27;98096.35;;;15.31;57.78
50867;BME280;36839;51.946;21.002;2023-03-14T10:44:58;98097.83;;;15.10;56.47
50867;BME280;36839;51.946;21.002;2023-03-14T10:47:28;98096.66;;;14.88;57.24
50867;BME280;36839;51.946;21.002;2023-03-14T10:50:28;98093.69;;;14.69;56.86
50867;BME280;36839;51.946;21.002;2023-03-14T10:52:57;98096.38;;;14.59;57.91
50867;BME280;36839;51.946;21.002;2023-03-14T10:55:27;98101.07;;;14.67;60.32
50867;BME280;36839;51.946;21.002;2023-03-14T10:57:55;98104.09;;;14.59;58.82
50867;BME280;36839;51.946;21.002;2023-03-14T11:00:23;98097.63;;;14.51;58.86
50867;BME280;36839;51.946;21.002;2023-03-14T11:05:59;98090.45;;;14.57;60.89
50867;BME280;36839;51.946;21.002;2023-03-14T11:08:42;98094.61;;;14.63;61.15
50867;BME280;36839;51.946;21.002;2023-03-14T11:11:29;98094.23;;;14.63;59.63
50867;BME280;36839;51.946;21.002;2023-03-14T11:19:44;98102.30;;;14.94;60.31
50867;BME280;36839;51.946;21.002;2023-03-14T11:22:20;98096.28;;;15.10;62.03
50867;BME280;36839;51.946;21.002;2023-03-14T11:27:44;98083.32;;;15.56;57.62
50867;BME280;36839;51.946;21.002;2023-03-14T11:30:16;98079.23;;;15.69;58.32
50867;BME280;36839;51.946;21.002;2023-03-14T11:36:08;98066.33;;;15.62;57.10
50867;BME280;36839;51.946;21.002;2023-03-14T11:38:52;98064.15;;;15.34;57.89
50867;BME280;36839;51.946;21.002;2023-03-14T11:43:55;98085.48;;;14.53;58.16
50867;BME280;36839;51.946;21.002;2023-03-14T11:46:31;98094.82;;;14.21;59.52
50867;BME280;36839;51.946;21.002;2023-03-14T11:52:27;98095.63;;;13.82;61.06
50867;BME280;36839;51.946;21.002;2023-03-14T11:55:11;98097.54;;;13.80;62.01
50867;BME280;36839;51.946;21.002;2023-03-14T11:58:27;98096.66;;;13.80;62.68
50867;BME280;36839;51.946;21.002;2023-03-14T12:01:03;98098.41;;;13.78;62.88
50867;BME280;36839;51.946;21.002;2023-03-14T12:03:45;98103.32;;;13.73;63.07
50867;BME280;36839;51.946;21.002;2023-03-14T12:06:22;98106.80;;;13.75;64.24
50867;BME280;36839;51.946;21.002;2023-03-14T12:09:02;98106.55;;;13.83;64.68
50867;BME280;36839;51.946;21.002;2023-03-14T12:14:24;98091.99;;;14.05;63.75
50867;BME280;36839;51.946;21.002;2023-03-14T12:16:55;98093.41;;;14.05;63.03
50867;BME280;36839;51.946;21.002;2023-03-14T12:22:51;98095.52;;;14.04;64.82
50867;BME280;36839;51.946;21.002;2023-03-14T12:25:02;98104.19;;;13.95;65.23
50867;BME280;36839;51.946;21.002;2023-03-14T12:30:36;98100.54;;;13.68;64.10
50867;BME280;36839;51.946;21.002;2023-03-14T12:35:43;98092.45;;;13.46;64.90
50867;BME280;36839;51.946;21.002;2023-03-14T12:41:29;98098.45;;;13.41;66.92
50867;BME280;36839;51.946;21.002;2023-03-14T12:46:59;98100.31;;;13.37;69.27
50867;BME280;36839;51.946;21.002;2023-03-14T12:49:31;98101.49;;;13.31;68.97
50867;BME280;36839;51.946;21.002;2023-03-14T12:52:02;98099.73;;;13.21;67.98
50867;BME280;36839;51.946;21.002;2023-03-14T12:58:00;98106.45;;;12.93;67.50
50867;BME280;36839;51.946;21.002;2023-03-14T13:00:34;98111.67;;;12.80;68.85
50867;BME280;36839;51.946;21.002;2023-03-14T13:06:00;98119.81;;;12.60;70.88
50867;BME280;36839;51.946;21.002;2023-03-14T13:08:34;98117.33;;;12.45;72.70
50867;BME280;36839;51.946;21.002;2023-03-14T13:11:02;98113.50;;;12.35;74.22
50867;BME280;36839;51.946;21.002;2023-03-14T13:13:37;98116.53;;;12.22;75.67
50867;BME280;36839;51.946;21.002;2023-03-14T13:16:14;98118.31;;;12.11;78.25
50867;BME280;36839;51.946;21.002;2023-03-14T13:18:50;98122.95;;;11.94;81.19
50867;BME280;36839;51.946;21.002;2023-03-14T13:21:25;98124.97;;;11.81;83.43
50867;BME280;36839;51.946;21.002;2023-03-14T13:27:35;98130.17;;;11.57;87.63
50867;BME280;36839;51.946;21.002;2023-03-14T13:30:24;98123.27;;;11.49;88.78
50867;BME280;36839;51.946;21.002;2023-03-14T13:32:55;98119.79;;;11.47;89.52
50867;BME280;36839;51.946;21.002;2023-03-14T13:39:22;98131.40;;;11.40;90.39
50867;BME280;36839;51.946;21.002;2023-03-14T13:42:00;98140.58;;;11.37;90.99
50867;BME280;36839;51.946;21.002;2023-03-14T13:44:35;98138.94;;;11.32;93.32
50867;BME280;36839;51.946;21.002;2023-03-14T13:47:05;98139.42;;;11.22;94.45
50867;BME280;36839;51.946;21.002;2023-03-14T13:49:36;98136.70;;;11.12;95.78
50867;BME280;36839;51.946;21.002;2023-03-14T13:52:20;98142.25;;;11.05;98.49
50867;BME280;36839;51.946;21.002;2023-03-14T13:54:54;98146.77;;;10.91;100.00
50867;BME280;36839;51.946;21.002;2023-03-14T13:57:24;98155.59;;;10.84;100.00
50867;BME280;36839;51.946;21.002;2023-03-14T14:00:05;98152.02;;;10.76;100.00
50867;BME280;36839;51.946;21.002;2023-03-14T14:02:38;98154.71;;;10.70;100.00
50867;BME280;36839;51.946;21.002;2023-03-14T14:05:11;98149.83;;;10.58;100.00
50867;BME280;36839;51.946;21.002;2023-03-14T14:07:44;98149.77;;;10.42;100.00
50867;BME280;36839;51.946;21.002;2023-03-14T14:10:13;98144.36;;;10.28;100.00